sensor_id;sensor_type;location;lat;lon;timestamp;pressure;altitude;pressure_sealevel;temperature;humidity
77351;BME280;66420;50.246;14.320;2023-06-24T00:00:44;100183.06;;;15.78;84.00
77351;BME280;66420;50.246;14.320;2023-06-24T00:03:28;100185.84;;;15.70;83.99
77351;BME280;66420;50.246;14.320;2023-06-24T00:06:13;100187.94;;;15.64;84.61
77351;BME280;66420;50.246;14.320;2023-06-24T00:09:02;100189.41;;;15.70;84.52
77351;BME280;66420;50.246;14.320;2023-06-24T00:11:48;100186.31;;;15.80;83.67
77351;BME280;66420;50.246;14.320;2023-06-24T00:14:33;100187.94;;;15.64;83.14
77351;BME280;66420;50.246;14.320;2023-06-24T00:17:18;100178.38;;;15.70;83.92
77351;BME280;66420;50.246;14.320;2023-06-24T00:20:03;100168.78;;;15.76;84.23
77351;BME280;66420;50.246;14.320;2023-06-24T00:22:49;100176.75;;;15.61;83.94
77351;BME280;66420;50.246;14.320;2023-06-24T00:25:34;100184.56;;;15.67;84.31
77351;BME280;66420;50.246;14.320;2023-06-24T00:28:20;100177.88;;;15.68;84.52
77351;BME280;66420;50.246;14.320;2023-06-24T00:31:04;100184.81;;;15.83;83.72
77351;BME280;66420;50.246;14.320;2023-06-24T00:33:48;100179.00;;;15.76;84.25
77351;BME280;66420;50.246;14.320;2023-06-24T00:36:33;100183.41;;;15.68;83.97
77351;BME280;66420;50.246;14.320;2023-06-24T00:39:19;100186.31;;;15.63;84.01
77351;BME280;66420;50.246;14.320;2023-06-24T00:42:04;100183.56;;;15.72;84.56
77351;BME280;66420;50.246;14.320;2023-06-24T00:44:49;100183.06;;;15.78;84.18
77351;BME280;66420;50.246;14.320;2023-06-24T00:47:34;100190.88;;;15.76;83.93
77351;BME280;66420;50.246;14.320;2023-06-24T00:50:18;100206.09;;;15.82;84.29
77351;BME280;66420;50.246;14.320;2023-06-24T00:53:03;100213.53;;;15.90;83.81
77351;BME280;66420;50.246;14.320;2023-06-24T00:55:47;100212.91;;;15.93;83.74
77351;BME280;66420;50.246;14.320;2023-06-24T00:58:33;100211.28;;;15.92;84.42
77351;BME280;66420;50.246;14.320;2023-06-24T01:01:20;100212.94;;;15.85;83.46
77351;BME280;66420;50.246;14.320;2023-06-24T01:04:04;100211.63;;;15.82;82.89
77351;BME280;66420;50.246;14.320;2023-06-24T01:06:50;100217.13;;;15.82;83.36
77351;BME280;66420;50.246;14.320;2023-06-24T01:09:35;100219.91;;;15.82;83.65
77351;BME280;66420;50.246;14.320;2023-06-24T01:12:20;100221.22;;;15.85;84.35
77351;BME280;66420;50.246;14.320;2023-06-24T01:15:07;100217.63;;;15.84;84.31
77351;BME280;66420;50.246;14.320;2023-06-24T01:20:58;100215.34;;;15.86;83.70
77351;BME280;66420;50.246;14.320;2023-06-24T01:33:15;100209.22;;;15.81;83.69
77351;BME280;66420;50.246;14.320;2023-06-24T01:36:02;100216.16;;;15.87;84.51
77351;BME280;66420;50.246;14.320;2023-06-24T01:39:03;100209.19;;;15.89;83.90
77351;BME280;66420;50.246;14.320;2023-06-24T01:41:56;100201.53;;;15.86;83.55
77351;BME280;66420;50.246;14.320;2023-06-24T01:44:44;100193.44;;;15.81;84.35
77351;BME280;66420;50.246;14.320;2023-06-24T01:47:31;100192.47;;;15.77;85.04
77351;BME280;66420;50.246;14.320;2023-06-24T01:50:17;100201.25;;;15.79;84.93
77351;BME280;66420;50.246;14.320;2023-06-24T01:53:06;100193.94;;;15.83;84.75
77351;BME280;66420;50.246;14.320;2023-06-24T01:55:53;100196.19;;;15.81;85.38
77351;BME280;66420;50.246;14.320;2023-06-24T01:58:40;100184.69;;;15.79;85.18
77351;BME280;66420;50.246;14.320;2023-06-24T02:01:27;100186.78;;;15.74;86.04
77351;BME280;66420;50.246;14.320;2023-06-24T02:04:15;100187.78;;;15.69;85.47
77351;BME280;66420;50.246;14.320;2023-06-24T02:07:02;100195.41;;;15.72;85.88
77351;BME280;66420;50.246;14.320;2023-06-24T02:09:49;100179.50;;;15.69;86.13
77351;BME280;66420;50.246;14.320;2023-06-24T02:12:35;100188.91;;;15.68;85.68
77351;BME280;66420;50.246;14.320;2023-06-24T02:15:21;100200.44;;;15.70;85.71
77351;BME280;66420;50.246;14.320;2023-06-24T02:18:08;100200.28;;;15.75;85.42
77351;BME280;66420;50.246;14.320;2023-06-24T02:20:56;100199.94;;;15.68;84.84
77351;BME280;66420;50.246;14.320;2023-06-24T02:23:42;100201.25;;;15.79;86.06
77351;BME280;66420;50.246;14.320;2023-06-24T02:26:27;100209.53;;;15.79;85.16
77351;BME280;66420;50.246;14.320;2023-06-24T02:29:12;100210.34;;;15.80;85.45
77351;BME280;66420;50.246;14.320;2023-06-24T02:31:58;100213.91;;;15.89;84.39
77351;BME280;66420;50.246;14.320;2023-06-24T02:34:42;100221.50;;;15.92;84.55
77351;BME280;66420;50.246;14.320;2023-06-24T02:37:27;100221.81;;;15.90;84.83
77351;BME280;66420;50.246;14.320;2023-06-24T02:40:11;100223.63;;;15.86;84.22
77351;BME280;66420;50.246;14.320;2023-06-24T02:42:57;100238.59;;;15.85;84.75
77351;BME280;66420;50.246;14.320;2023-06-24T02:45:43;100243.59;;;15.83;85.06
77351;BME280;66420;50.246;14.320;2023-06-24T02:48:30;100239.88;;;15.79;84.96
77351;BME280;66420;50.246;14.320;2023-06-24T02:51:17;100236.00;;;15.80;85.74
77351;BME280;66420;50.246;14.320;2023-06-24T02:54:03;100244.09;;;15.85;85.88
77351;BME280;66420;50.246;14.320;2023-06-24T02:56:49;100240.03;;;15.83;85.36
77351;BME280;66420;50.246;14.320;2023-06-24T02:59:34;100242.78;;;15.83;85.09
77351;BME280;66420;50.246;14.320;2023-06-24T03:02:20;100256.75;;;15.86;84.52
77351;BME280;66420;50.246;14.320;2023-06-24T03:05:06;100249.63;;;15.85;85.02
77351;BME280;66420;50.246;14.320;2023-06-24T03:07:52;100253.19;;;15.77;84.86
77351;BME280;66420;50.246;14.320;2023-06-24T03:10:37;100253.19;;;15.77;85.74
77351;BME280;66420;50.246;14.320;2023-06-24T03:13:22;100256.28;;;15.76;86.86
77351;BME280;66420;50.246;14.320;2023-06-24T03:16:07;100269.59;;;15.82;85.31
77351;BME280;66420;50.246;14.320;2023-06-24T03:18:56;100269.59;;;15.82;84.99
77351;BME280;66420;50.246;14.320;2023-06-24T03:21:41;100264.72;;;15.79;85.65
77351;BME280;66420;50.246;14.320;2023-06-24T03:24:25;100262.63;;;15.76;85.69
77351;BME280;66420;50.246;14.320;2023-06-24T03:27:10;100270.56;;;15.78;86.15
77351;BME280;66420;50.246;14.320;2023-06-24T03:29:55;100276.59;;;15.71;86.38
77351;BME280;66420;50.246;14.320;2023-06-24T03:32:39;100279.19;;;15.76;85.90
77351;BME280;66420;50.246;14.320;2023-06-24T03:35:24;100277.88;;;15.65;86.31
77351;BME280;66420;50.246;14.320;2023-06-24T03:38:09;100278.38;;;15.67;86.41
77351;BME280;66420;50.246;14.320;2023-06-24T03:40:54;100283.41;;;15.65;86.07
77351;BME280;66420;50.246;14.320;2023-06-24T03:43:39;100285.03;;;15.66;86.59
77351;BME280;66420;50.246;14.320;2023-06-24T03:46:26;100283.72;;;15.64;85.98
77351;BME280;66420;50.246;14.320;2023-06-24T03:49:11;100283.91;;;15.67;86.20
77351;BME280;66420;50.246;14.320;2023-06-24T03:51:56;100290.38;;;15.71;85.59
77351;BME280;66420;50.246;14.320;2023-06-24T03:54:41;100290.53;;;15.66;86.08
77351;BME280;66420;50.246;14.320;2023-06-24T03:57:25;100293.16;;;15.71;85.75
77351;BME280;66420;50.246;14.320;2023-06-24T04:00:10;100286.81;;;15.71;86.13
77351;BME280;66420;50.246;14.320;2023-06-24T04:03:00;100281.13;;;15.67;86.28
77351;BME280;66420;50.246;14.320;2023-06-24T04:05:45;100279.66;;;15.78;86.23
77351;BME280;66420;50.246;14.320;2023-06-24T04:08:30;100280.97;;;15.81;86.07
77351;BME280;66420;50.246;14.320;2023-06-24T04:11:15;100281.28;;;15.88;85.62
77351;BME280;66420;50.246;14.320;2023-06-24T04:13:59;100279.00;;;15.81;85.49
77351;BME280;66420;50.246;14.320;2023-06-24T04:16:44;100284.69;;;15.85;86.18
77351;BME280;66420;50.246;14.320;2023-06-24T04:19:28;100284.19;;;15.91;85.66
77351;BME280;66420;50.246;14.320;2023-06-24T04:22:14;100296.69;;;15.98;84.88
77351;BME280;66420;50.246;14.320;2023-06-24T04:24:58;100291.19;;;15.98;85.22
77351;BME280;66420;50.246;14.320;2023-06-24T04:27:43;100285.66;;;15.98;85.19
77351;BME280;66420;50.246;14.320;2023-06-24T04:30:28;100283.56;;;15.94;85.56
77351;BME280;66420;50.246;14.320;2023-06-24T04:33:12;100287.75;;;15.92;85.83
77351;BME280;66420;50.246;14.320;2023-06-24T04:35:57;100280.59;;;16.00;85.26
77351;BME280;66420;50.246;14.320;2023-06-24T04:38:43;100284.50;;;16.07;85.08
77351;BME280;66420;50.246;14.320;2023-06-24T04:41:27;100281.59;;;16.04;85.44
77351;BME280;66420;50.246;14.320;2023-06-24T04:44:13;100286.91;;;16.09;85.11
77351;BME280;66420;50.246;14.320;2023-06-24T04:46:58;100285.63;;;16.15;85.06
77351;BME280;66420;50.246;14.320;2023-06-24T04:49:43;100291.97;;;16.15;86.21
77351;BME280;66420;50.246;14.320;2023-06-24T04:52:28;100291.00;;;16.03;86.64
77351;BME280;66420;50.246;14.320;2023-06-24T04:55:12;100293.28;;;16.01;87.54
77351;BME280;66420;50.246;14.320;2023-06-24T04:57:57;100307.41;;;16.08;87.51
77351;BME280;66420;50.246;14.320;2023-06-24T05:00:43;100301.22;;;16.11;87.90
77351;BME280;66420;50.246;14.320;2023-06-24T05:03:27;100308.69;;;16.10;86.50
77351;BME280;66420;50.246;14.320;2023-06-24T05:06:12;100299.56;;;16.18;87.41
77351;BME280;66420;50.246;14.320;2023-06-24T05:08:57;100309.63;;;16.23;86.67
77351;BME280;66420;50.246;14.320;2023-06-24T05:11:42;100309.16;;;16.21;86.86
77351;BME280;66420;50.246;14.320;2023-06-24T05:14:26;100315.00;;;16.19;86.36
77351;BME280;66420;50.246;14.320;2023-06-24T05:17:11;100312.41;;;16.23;86.30
77351;BME280;66420;50.246;14.320;2023-06-24T05:19:56;100309.97;;;16.30;86.21
77351;BME280;66420;50.246;14.320;2023-06-24T05:22:40;100309.00;;;16.26;86.52
77351;BME280;66420;50.246;14.320;2023-06-24T05:25:25;100314.03;;;16.24;86.13
77351;BME280;66420;50.246;14.320;2023-06-24T05:28:10;100315.34;;;16.18;86.61
77351;BME280;66420;50.246;14.320;2023-06-24T05:30:55;100307.38;;;16.25;87.53
77351;BME280;66420;50.246;14.320;2023-06-24T05:33:40;100322.47;;;16.19;87.76
77351;BME280;66420;50.246;14.320;2023-06-24T05:36:25;100324.75;;;16.25;87.83
77351;BME280;66420;50.246;14.320;2023-06-24T05:39:10;100326.38;;;16.18;87.55
77351;BME280;66420;50.246;14.320;2023-06-24T05:41:56;100325.06;;;16.24;88.77
77351;BME280;66420;50.246;14.320;2023-06-24T05:44:40;100327.03;;;16.15;89.09
77351;BME280;66420;50.246;14.320;2023-06-24T05:47:25;100324.28;;;16.15;89.50
77351;BME280;66420;50.246;14.320;2023-06-24T05:50:10;100337.09;;;16.19;90.34
77351;BME280;66420;50.246;14.320;2023-06-24T05:52:55;100343.16;;;16.13;90.90
77351;BME280;66420;50.246;14.320;2023-06-24T05:55:40;100340.84;;;16.15;90.83
77351;BME280;66420;50.246;14.320;2023-06-24T05:58:25;100347.84;;;16.12;91.63
77351;BME280;66420;50.246;14.320;2023-06-24T06:01:10;100355.78;;;16.14;91.31
77351;BME280;66420;50.246;14.320;2023-06-24T06:03:55;100368.13;;;16.25;91.82
77351;BME280;66420;50.246;14.320;2023-06-24T06:06:40;100362.75;;;16.28;91.45
77351;BME280;66420;50.246;14.320;2023-06-24T06:09:24;100375.28;;;16.26;91.55
77351;BME280;66420;50.246;14.320;2023-06-24T06:12:09;100367.66;;;16.31;92.30
77351;BME280;66420;50.246;14.320;2023-06-24T06:14:54;100377.53;;;16.32;92.77
77351;BME280;66420;50.246;14.320;2023-06-24T06:17:39;100365.34;;;16.42;91.04
77351;BME280;66420;50.246;14.320;2023-06-24T06:20:23;100366.13;;;16.51;93.22
77351;BME280;66420;50.246;14.320;2023-06-24T06:23:08;100374.78;;;16.58;93.27
77351;BME280;66420;50.246;14.320;2023-06-24T06:25:53;100376.03;;;16.69;92.36
77351;BME280;66420;50.246;14.320;2023-06-24T06:28:38;100368.19;;;16.89;92.09
77351;BME280;66420;50.246;14.320;2023-06-24T06:31:22;100363.56;;;17.01;89.88
77351;BME280;66420;50.246;14.320;2023-06-24T06:34:10;100366.00;;;17.03;89.70
77351;BME280;66420;50.246;14.320;2023-06-24T06:36:55;100364.47;;;17.22;89.55
77351;BME280;66420;50.246;14.320;2023-06-24T06:39:39;100362.22;;;17.45;90.12
77351;BME280;66420;50.246;14.320;2023-06-24T06:42:24;100366.72;;;17.58;86.64
77351;BME280;66420;50.246;14.320;2023-06-24T06:45:09;100367.91;;;17.78;87.01
77351;BME280;66420;50.246;14.320;2023-06-24T06:47:53;100362.59;;;18.06;86.59
77351;BME280;66420;50.246;14.320;2023-06-24T06:50:38;100371.84;;;18.31;85.80
77351;BME280;66420;50.246;14.320;2023-06-24T06:53:22;100364.13;;;18.36;83.99
77351;BME280;66420;50.246;14.320;2023-06-24T06:56:07;100358.63;;;18.48;84.57
77351;BME280;66420;50.246;14.320;2023-06-24T06:58:53;100361.13;;;18.62;84.59
77351;BME280;66420;50.246;14.320;2023-06-24T07:01:37;100360.56;;;18.69;84.68
77351;BME280;66420;50.246;14.320;2023-06-24T07:04:23;100356.66;;;18.82;83.10
77351;BME280;66420;50.246;14.320;2023-06-24T07:07:07;100346.00;;;18.84;81.90
77351;BME280;66420;50.246;14.320;2023-06-24T07:09:52;100349.84;;;19.03;82.80
77351;BME280;66420;50.246;14.320;2023-06-24T07:12:38;100347.69;;;18.97;82.63
77351;BME280;66420;50.246;14.320;2023-06-24T07:15:22;100355.31;;;19.00;82.19
77351;BME280;66420;50.246;14.320;2023-06-24T07:18:07;100349.53;;;19.05;82.15
77351;BME280;66420;50.246;14.320;2023-06-24T07:20:53;100347.19;;;19.07;80.30
77351;BME280;66420;50.246;14.320;2023-06-24T07:23:37;100349.53;;;19.17;78.68
77351;BME280;66420;50.246;14.320;2023-06-24T07:26:22;100343.75;;;19.10;78.29
77351;BME280;66420;50.246;14.320;2023-06-24T07:29:07;100345.34;;;19.11;75.99
77351;BME280;66420;50.246;14.320;2023-06-24T07:31:52;100349.16;;;19.31;75.22
77351;BME280;66420;50.246;14.320;2023-06-24T07:34:37;100346.06;;;19.57;75.17
77351;BME280;66420;50.246;14.320;2023-06-24T07:37:22;100340.53;;;19.84;74.84
77351;BME280;66420;50.246;14.320;2023-06-24T07:40:07;100338.75;;;20.04;73.47
77351;BME280;66420;50.246;14.320;2023-06-24T07:42:53;100340.31;;;20.17;72.25
77351;BME280;66420;50.246;14.320;2023-06-24T07:45:38;100337.75;;;20.24;71.94
77351;BME280;66420;50.246;14.320;2023-06-24T07:48:23;100337.91;;;20.16;69.16
77351;BME280;66420;50.246;14.320;2023-06-24T07:51:07;100331.00;;;20.38;71.28
77351;BME280;66420;50.246;14.320;2023-06-24T07:53:53;100339.13;;;20.30;69.93
77351;BME280;66420;50.246;14.320;2023-06-24T07:56:38;100332.19;;;20.52;70.37
77351;BME280;66420;50.246;14.320;2023-06-24T07:59:23;100333.09;;;20.72;69.08
77351;BME280;66420;50.246;14.320;2023-06-24T08:02:08;100330.16;;;20.65;69.43
77351;BME280;66420;50.246;14.320;2023-06-24T08:04:54;100327.47;;;20.84;68.71
77351;BME280;66420;50.246;14.320;2023-06-24T08:07:39;100332.84;;;21.08;67.20
77351;BME280;66420;50.246;14.320;2023-06-24T08:10:24;100328.16;;;20.81;67.95
77351;BME280;66420;50.246;14.320;2023-06-24T08:13:08;100333.38;;;20.67;66.96
77351;BME280;66420;50.246;14.320;2023-06-24T08:15:53;100336.97;;;20.83;64.61
77351;BME280;66420;50.246;14.320;2023-06-24T08:18:38;100345.22;;;20.95;65.75
77351;BME280;66420;50.246;14.320;2023-06-24T08:21:23;100339.78;;;20.99;66.02
77351;BME280;66420;50.246;14.320;2023-06-24T08:24:08;100337.63;;;20.92;66.35
77351;BME280;66420;50.246;14.320;2023-06-24T08:26:52;100335.19;;;21.22;63.98
77351;BME280;66420;50.246;14.320;2023-06-24T08:29:37;100327.41;;;21.62;64.05
77351;BME280;66420;50.246;14.320;2023-06-24T08:32:22;100330.19;;;21.62;63.66
77351;BME280;66420;50.246;14.320;2023-06-24T08:35:08;100331.16;;;21.35;64.22
77351;BME280;66420;50.246;14.320;2023-06-24T08:37:53;100337.19;;;21.21;64.37
77351;BME280;66420;50.246;14.320;2023-06-24T08:40:38;100337.16;;;21.06;64.46
77351;BME280;66420;50.246;14.320;2023-06-24T08:43:24;100340.03;;;20.94;64.43
77351;BME280;66420;50.246;14.320;2023-06-24T08:46:10;100331.84;;;21.48;64.30
77351;BME280;66420;50.246;14.320;2023-06-24T08:49:03;100340.56;;;21.81;60.43
77351;BME280;66420;50.246;14.320;2023-06-24T08:51:59;100338.66;;;22.24;62.47
77351;BME280;66420;50.246;14.320;2023-06-24T08:54:50;100332.16;;;21.62;63.17
77351;BME280;66420;50.246;14.320;2023-06-24T08:57:36;100342.56;;;21.14;65.44
77351;BME280;66420;50.246;14.320;2023-06-24T09:00:20;100337.50;;;21.04;66.09
77351;BME280;66420;50.246;14.320;2023-06-24T09:03:05;100329.72;;;20.94;66.94
77351;BME280;66420;50.246;14.320;2023-06-24T09:05:50;100338.69;;;20.88;66.52
77351;BME280;66420;50.246;14.320;2023-06-24T09:08:35;100343.38;;;21.31;64.65
77351;BME280;66420;50.246;14.320;2023-06-24T09:11:25;100326.38;;;21.71;63.50
77351;BME280;66420;50.246;14.320;2023-06-24T09:14:11;100337.66;;;21.78;61.37
77351;BME280;66420;50.246;14.320;2023-06-24T09:16:58;100333.75;;;22.36;62.77
77351;BME280;66420;50.246;14.320;2023-06-24T09:19:45;100335.16;;;22.07;61.03
77351;BME280;66420;50.246;14.320;2023-06-24T09:22:30;100342.28;;;21.70;61.52
77351;BME280;66420;50.246;14.320;2023-06-24T09:25:18;100340.66;;;21.69;62.96
77351;BME280;66420;50.246;14.320;2023-06-24T09:28:04;100340.44;;;21.58;60.41
77351;BME280;66420;50.246;14.320;2023-06-24T09:31:08;100338.31;;;22.06;61.02
77351;BME280;66420;50.246;14.320;2023-06-24T09:33:57;100347.50;;;22.26;60.02
77351;BME280;66420;50.246;14.320;2023-06-24T09:36:43;100341.31;;;22.36;60.12
77351;BME280;66420;50.246;14.320;2023-06-24T09:39:38;100339.47;;;22.05;60.01
77351;BME280;66420;50.246;14.320;2023-06-24T09:42:23;100338.38;;;22.09;61.27
77351;BME280;66420;50.246;14.320;2023-06-24T09:45:08;100334.31;;;22.87;61.99
77351;BME280;66420;50.246;14.320;2023-06-24T09:47:54;100334.94;;;23.23;57.73
77351;BME280;66420;50.246;14.320;2023-06-24T09:50:39;100337.31;;;23.24;56.55
77351;BME280;66420;50.246;14.320;2023-06-24T09:53:23;100337.03;;;23.07;57.71
77351;BME280;66420;50.246;14.320;2023-06-24T09:56:10;100343.84;;;23.32;56.16
77351;BME280;66420;50.246;14.320;2023-06-24T09:58:58;100345.38;;;22.80;55.98
77351;BME280;66420;50.246;14.320;2023-06-24T10:01:43;100341.53;;;22.69;57.92
77351;BME280;66420;50.246;14.320;2023-06-24T10:04:29;100335.53;;;22.86;57.64
77351;BME280;66420;50.246;14.320;2023-06-24T10:07:14;100346.50;;;22.98;56.48
77351;BME280;66420;50.246;14.320;2023-06-24T10:10:01;100339.22;;;22.94;55.98
77351;BME280;66420;50.246;14.320;2023-06-24T10:12:46;100335.50;;;23.58;55.77
77351;BME280;66420;50.246;14.320;2023-06-24T10:15:31;100341.03;;;23.55;53.98
77351;BME280;66420;50.246;14.320;2023-06-24T10:18:36;100349.38;;;23.06;55.35
77351;BME280;66420;50.246;14.320;2023-06-24T10:21:22;100337.81;;;23.04;54.28
77351;BME280;66420;50.246;14.320;2023-06-24T10:24:06;100339.91;;;23.59;56.37
77351;BME280;66420;50.246;14.320;2023-06-24T10:26:51;100334.50;;;23.47;51.46
77351;BME280;66420;50.246;14.320;2023-06-24T10:29:36;100336.47;;;23.69;51.66
77351;BME280;66420;50.246;14.320;2023-06-24T10:32:23;100323.78;;;23.79;52.43
77351;BME280;66420;50.246;14.320;2023-06-24T10:35:21;100336.34;;;23.36;53.56
77351;BME280;66420;50.246;14.320;2023-06-24T10:38:10;100326.94;;;22.98;54.20
77351;BME280;66420;50.246;14.320;2023-06-24T10:40:55;100327.94;;;23.10;52.47
77351;BME280;66420;50.246;14.320;2023-06-24T10:43:39;100319.81;;;23.50;51.93
77351;BME280;66420;50.246;14.320;2023-06-24T10:46:26;100315.25;;;23.16;51.50
77351;BME280;66420;50.246;14.320;2023-06-24T10:49:11;100319.78;;;23.76;52.27
77351;BME280;66420;50.246;14.320;2023-06-24T10:51:56;100318.47;;;23.97;49.30
77351;BME280;66420;50.246;14.320;2023-06-24T10:54:41;100322.13;;;23.45;52.10
77351;BME280;66420;50.246;14.320;2023-06-24T10:57:27;100314.84;;;23.14;51.50
77351;BME280;66420;50.246;14.320;2023-06-24T11:00:12;100313.84;;;23.03;52.19
77351;BME280;66420;50.246;14.320;2023-06-24T11:02:57;100314.66;;;23.29;50.30
77351;BME280;66420;50.246;14.320;2023-06-24T11:05:51;100302.25;;;23.79;51.47
77351;BME280;66420;50.246;14.320;2023-06-24T11:08:43;100299.00;;;24.07;50.10
77351;BME280;66420;50.246;14.320;2023-06-24T11:11:28;100293.97;;;23.87;49.74
77351;BME280;66420;50.246;14.320;2023-06-24T11:14:15;100292.09;;;23.98;49.43
77351;BME280;66420;50.246;14.320;2023-06-24T11:17:03;100284.88;;;24.26;48.63
77351;BME280;66420;50.246;14.320;2023-06-24T11:19:48;100297.38;;;24.36;48.39
77351;BME280;66420;50.246;14.320;2023-06-24T11:22:33;100287.78;;;24.37;45.05
77351;BME280;66420;50.246;14.320;2023-06-24T11:25:20;100288.88;;;24.29;48.41
77351;BME280;66420;50.246;14.320;2023-06-24T11:28:17;100290.91;;;24.28;46.25
77351;BME280;66420;50.246;14.320;2023-06-24T11:31:11;100300.56;;;24.05;48.84
77351;BME280;66420;50.246;14.320;2023-06-24T11:33:57;100293.38;;;24.37;49.07
77351;BME280;66420;50.246;14.320;2023-06-24T11:36:42;100291.22;;;24.23;46.08
77351;BME280;66420;50.246;14.320;2023-06-24T11:39:27;100278.94;;;24.32;46.51
77351;BME280;66420;50.246;14.320;2023-06-24T11:42:13;100282.47;;;24.65;46.21
77351;BME280;66420;50.246;14.320;2023-06-24T11:45:05;100278.34;;;24.93;46.58
77351;BME280;66420;50.246;14.320;2023-06-24T11:47:49;100278.38;;;24.96;44.31
77351;BME280;66420;50.246;14.320;2023-06-24T11:50:35;100280.41;;;25.03;43.52
77351;BME280;66420;50.246;14.320;2023-06-24T11:53:30;100276.50;;;25.14;42.99
77351;BME280;66420;50.246;14.320;2023-06-24T11:56:18;100266.94;;;25.23;45.38
77351;BME280;66420;50.246;14.320;2023-06-24T11:59:09;100269.84;;;25.40;45.05
77351;BME280;66420;50.246;14.320;2023-06-24T12:02:01;100271.59;;;25.55;42.95
77351;BME280;66420;50.246;14.320;2023-06-24T12:04:48;100265.41;;;25.32;45.38
77351;BME280;66420;50.246;14.320;2023-06-24T12:07:32;100269.47;;;25.38;44.13
77351;BME280;66420;50.246;14.320;2023-06-24T12:10:17;100261.59;;;25.62;44.20
77351;BME280;66420;50.246;14.320;2023-06-24T12:13:02;100268.31;;;25.53;42.78
77351;BME280;66420;50.246;14.320;2023-06-24T12:15:48;100257.53;;;25.52;42.58
77351;BME280;66420;50.246;14.320;2023-06-24T12:18:32;100257.28;;;25.16;44.25
77351;BME280;66420;50.246;14.320;2023-06-24T12:21:17;100247.69;;;25.17;43.94
77351;BME280;66420;50.246;14.320;2023-06-24T12:24:02;100242.91;;;25.22;43.79
77351;BME280;66420;50.246;14.320;2023-06-24T12:26:47;100246.53;;;25.22;43.27
77351;BME280;66420;50.246;14.320;2023-06-24T12:29:33;100241.66;;;25.12;44.04
77351;BME280;66420;50.246;14.320;2023-06-24T12:32:17;100245.25;;;25.09;43.26
77351;BME280;66420;50.246;14.320;2023-06-24T12:35:03;100236.50;;;25.21;43.76
77351;BME280;66420;50.246;14.320;2023-06-24T12:37:48;100244.16;;;25.24;44.33
77351;BME280;66420;50.246;14.320;2023-06-24T12:40:33;100231.50;;;24.90;42.92
77351;BME280;66420;50.246;14.320;2023-06-24T12:43:18;100222.25;;;25.47;43.65
77351;BME280;66420;50.246;14.320;2023-06-24T12:46:02;100226.75;;;25.59;42.80
77351;BME280;66420;50.246;14.320;2023-06-24T12:48:47;100224.00;;;25.77;40.84
77351;BME280;66420;50.246;14.320;2023-06-24T12:51:32;100226.28;;;25.53;41.01
77351;BME280;66420;50.246;14.320;2023-06-24T12:54:16;100218.00;;;25.78;43.19
77351;BME280;66420;50.246;14.320;2023-06-24T12:57:01;100220.38;;;25.73;41.70
77351;BME280;66420;50.246;14.320;2023-06-24T12:59:46;100222.38;;;25.69;43.30
77351;BME280;66420;50.246;14.320;2023-06-24T13:02:30;100234.78;;;25.64;43.01
77351;BME280;66420;50.246;14.320;2023-06-24T13:05:16;100233.66;;;25.86;42.53
77351;BME280;66420;50.246;14.320;2023-06-24T13:08:01;100223.25;;;25.80;41.49
77351;BME280;66420;50.246;14.320;2023-06-24T13:10:46;100224.53;;;25.24;41.71
77351;BME280;66420;50.246;14.320;2023-06-24T13:13:31;100217.41;;;25.37;42.90
77351;BME280;66420;50.246;14.320;2023-06-24T13:16:15;100216.34;;;25.67;41.75
77351;BME280;66420;50.246;14.320;2023-06-24T13:19:00;100213.63;;;25.12;44.97
77351;BME280;66420;50.246;14.320;2023-06-24T13:21:45;100216.63;;;24.86;43.21
77351;BME280;66420;50.246;14.320;2023-06-24T13:24:29;100212.97;;;25.36;42.32
77351;BME280;66420;50.246;14.320;2023-06-24T13:27:14;100205.50;;;25.58;42.05
77351;BME280;66420;50.246;14.320;2023-06-24T13:29:59;100211.19;;;25.76;41.28
77351;BME280;66420;50.246;14.320;2023-06-24T13:32:43;100206.72;;;25.57;40.38
77351;BME280;66420;50.246;14.320;2023-06-24T13:35:28;100207.91;;;25.59;43.16
77351;BME280;66420;50.246;14.320;2023-06-24T13:38:13;100210.47;;;25.17;40.75
77351;BME280;66420;50.246;14.320;2023-06-24T13:40:58;100211.97;;;25.73;42.60
77351;BME280;66420;50.246;14.320;2023-06-24T13:43:44;100217.25;;;25.95;40.84
77351;BME280;66420;50.246;14.320;2023-06-24T13:46:30;100207.91;;;25.59;43.61
77351;BME280;66420;50.246;14.320;2023-06-24T13:49:15;100213.53;;;25.56;41.17
77351;BME280;66420;50.246;14.320;2023-06-24T13:52:00;100208.03;;;25.88;41.57
77351;BME280;66420;50.246;14.320;2023-06-24T13:54:45;100207.72;;;25.21;40.61
77351;BME280;66420;50.246;14.320;2023-06-24T13:57:30;100195.84;;;24.83;40.51
77351;BME280;66420;50.246;14.320;2023-06-24T14:00:15;100203.00;;;24.81;42.33
77351;BME280;66420;50.246;14.320;2023-06-24T14:03:00;100195.09;;;25.55;42.58
77351;BME280;66420;50.246;14.320;2023-06-24T14:05:45;100196.16;;;25.36;41.08
77351;BME280;66420;50.246;14.320;2023-06-24T14:08:32;100198.50;;;25.20;41.45
77351;BME280;66420;50.246;14.320;2023-06-24T14:11:17;100200.84;;;25.11;40.25
77351;BME280;66420;50.246;14.320;2023-06-24T14:14:02;100197.41;;;25.42;42.05
77351;BME280;66420;50.246;14.320;2023-06-24T14:16:47;100204.31;;;25.63;41.58
77351;BME280;66420;50.246;14.320;2023-06-24T14:19:31;100194.78;;;25.81;40.71
77351;BME280;66420;50.246;14.320;2023-06-24T14:22:16;100197.91;;;25.62;39.48
77351;BME280;66420;50.246;14.320;2023-06-24T14:25:02;100187.38;;;25.38;41.05
77351;BME280;66420;50.246;14.320;2023-06-24T14:27:47;100180.31;;;25.62;39.91